sensor_id;sensor_type;location;lat;lon;timestamp;P1;durP1;ratioP1;P2;durP2;ratioP2
55190;SDS011;41070;50.360;18.742;2023-02-20T00:00:26;6.70;;;3.30;;
55190;SDS011;41070;50.360;18.742;2023-02-20T00:03:22;7.80;;;3.60;;
55190;SDS011;41070;50.360;18.742;2023-02-20T00:05:57;8.30;;;3.20;;
55190;SDS011;41070;50.360;18.742;2023-02-20T00:08:25;7.90;;;3.50;;
55190;SDS011;41070;50.360;18.742;2023-02-20T00:10:53;8.30;;;3.20;;
55190;SDS011;41070;50.360;18.742;2023-02-20T00:13:20;5.70;;;3.40;;
55190;SDS011;41070;50.360;18.742;2023-02-20T00:15:48;8.30;;;3.20;;
55190;SDS011;41070;50.360;18.742;2023-02-20T00:18:15;7.60;;;2.80;;
55190;SDS011;41070;50.360;18.742;2023-02-20T00:20:43;6.10;;;3.30;;
55190;SDS011;41070;50.360;18.742;2023-02-20T00:23:11;6.40;;;3.20;;
55190;SDS011;41070;50.360;18.742;2023-02-20T00:25:39;6.80;;;3.30;;
55190;SDS011;41070;50.360;18.742;2023-02-20T00:28:06;8.60;;;3.60;;
55190;SDS011;41070;50.360;18.742;2023-02-20T00:30:34;7.70;;;3.40;;
55190;SDS011;41070;50.360;18.742;2023-02-20T00:33:02;7.60;;;2.90;;
55190;SDS011;41070;50.360;18.742;2023-02-20T00:35:30;7.10;;;2.80;;
55190;SDS011;41070;50.360;18.742;2023-02-20T00:37:57;6.00;;;3.30;;
55190;SDS011;41070;50.360;18.742;2023-02-20T00:40:25;8.70;;;2.90;;
55190;SDS011;41070;50.360;18.742;2023-02-20T00:42:53;8.00;;;2.60;;
55190;SDS011;41070;50.360;18.742;2023-02-20T00:45:21;12.10;;;3.90;;
55190;SDS011;41070;50.360;18.742;2023-02-20T00:47:48;11.10;;;3.10;;
55190;SDS011;41070;50.360;18.742;2023-02-20T00:50:16;7.20;;;3.20;;
55190;SDS011;41070;50.360;18.742;2023-02-20T00:52:44;12.30;;;3.80;;
55190;SDS011;41070;50.360;18.742;2023-02-20T00:55:12;10.80;;;3.40;;
55190;SDS011;41070;50.360;18.742;2023-02-20T00:57:39;8.30;;;3.00;;
55190;SDS011;41070;50.360;18.742;2023-02-20T01:00:08;9.80;;;3.50;;
55190;SDS011;41070;50.360;18.742;2023-02-20T01:02:42;7.90;;;2.80;;
55190;SDS011;41070;50.360;18.742;2023-02-20T01:05:13;8.50;;;2.90;;
55190;SDS011;41070;50.360;18.742;2023-02-20T01:07:41;7.40;;;2.80;;
55190;SDS011;41070;50.360;18.742;2023-02-20T01:10:11;7.30;;;3.60;;
55190;SDS011;41070;50.360;18.742;2023-02-20T01:12:40;7.40;;;2.90;;
55190;SDS011;41070;50.360;18.742;2023-02-20T01:15:08;5.90;;;3.20;;
55190;SDS011;41070;50.360;18.742;2023-02-20T01:17:38;7.30;;;2.90;;
55190;SDS011;41070;50.360;18.742;2023-02-20T01:20:06;5.20;;;2.60;;
55190;SDS011;41070;50.360;18.742;2023-02-20T01:22:34;5.90;;;2.90;;
55190;SDS011;41070;50.360;18.742;2023-02-20T01:25:02;5.30;;;2.70;;
55190;SDS011;41070;50.360;18.742;2023-02-20T01:27:30;4.60;;;2.50;;
55190;SDS011;41070;50.360;18.742;2023-02-20T01:29:58;7.30;;;2.10;;
55190;SDS011;41070;50.360;18.742;2023-02-20T01:32:31;3.90;;;2.00;;
55190;SDS011;41070;50.360;18.742;2023-02-20T01:34:59;9.10;;;2.90;;
55190;SDS011;41070;50.360;18.742;2023-02-20T01:37:27;5.90;;;2.90;;
55190;SDS011;41070;50.360;18.742;2023-02-20T01:39:55;9.90;;;3.30;;
55190;SDS011;41070;50.360;18.742;2023-02-20T01:42:23;5.80;;;3.00;;
55190;SDS011;41070;50.360;18.742;2023-02-20T01:44:52;8.90;;;2.50;;
55190;SDS011;41070;50.360;18.742;2023-02-20T01:47:21;7.20;;;2.50;;
55190;SDS011;41070;50.360;18.742;2023-02-20T01:49:51;7.00;;;2.50;;
55190;SDS011;41070;50.360;18.742;2023-02-20T01:52:27;5.00;;;2.60;;
55190;SDS011;41070;50.360;18.742;2023-02-20T01:57:34;6.80;;;1.90;;
55190;SDS011;41070;50.360;18.742;2023-02-20T02:00:05;9.20;;;2.50;;
55190;SDS011;41070;50.360;18.742;2023-02-20T02:02:53;7.00;;;2.10;;
55190;SDS011;41070;50.360;18.742;2023-02-20T02:05:23;7.70;;;2.20;;
55190;SDS011;41070;50.360;18.742;2023-02-20T02:07:53;3.70;;;2.10;;
55190;SDS011;41070;50.360;18.742;2023-02-20T02:10:27;4.40;;;2.00;;
55190;SDS011;41070;50.360;18.742;2023-02-20T02:12:58;3.50;;;1.80;;
55190;SDS011;41070;50.360;18.742;2023-02-20T02:15:27;6.00;;;1.90;;
55190;SDS011;41070;50.360;18.742;2023-02-20T02:34:58;5.20;;;1.80;;
55190;SDS011;41070;50.360;18.742;2023-02-20T02:43:37;4.30;;;2.00;;
55190;SDS011;41070;50.360;18.742;2023-02-20T02:52:04;3.60;;;1.90;;
55190;SDS011;41070;50.360;18.742;2023-02-20T02:54:35;4.00;;;2.10;;
55190;SDS011;41070;50.360;18.742;2023-02-20T03:11:17;8.40;;;3.10;;
55190;SDS011;41070;50.360;18.742;2023-02-20T03:17:13;4.60;;;2.10;;
55190;SDS011;41070;50.360;18.742;2023-02-20T03:19:53;7.30;;;2.30;;
55190;SDS011;41070;50.360;18.742;2023-02-20T03:22:38;5.20;;;2.30;;
55190;SDS011;41070;50.360;18.742;2023-02-20T03:25:27;5.50;;;2.40;;
55190;SDS011;41070;50.360;18.742;2023-02-20T03:28:10;5.00;;;2.60;;
55190;SDS011;41070;50.360;18.742;2023-02-20T03:33:44;3.80;;;1.90;;
55190;SDS011;41070;50.360;18.742;2023-02-20T03:36:36;4.20;;;2.20;;
55190;SDS011;41070;50.360;18.742;2023-02-20T03:39:36;6.10;;;2.50;;
55190;SDS011;41070;50.360;18.742;2023-02-20T03:42:38;5.20;;;1.80;;
55190;SDS011;41070;50.360;18.742;2023-02-20T03:45:29;5.10;;;2.30;;
55190;SDS011;41070;50.360;18.742;2023-02-20T03:48:01;8.40;;;2.60;;
55190;SDS011;41070;50.360;18.742;2023-02-20T03:50:37;8.80;;;2.20;;
55190;SDS011;41070;50.360;18.742;2023-02-20T03:53:22;8.30;;;2.50;;
55190;SDS011;41070;50.360;18.742;2023-02-20T03:55:51;7.10;;;2.60;;
55190;SDS011;41070;50.360;18.742;2023-02-20T03:58:22;8.30;;;3.00;;
55190;SDS011;41070;50.360;18.742;2023-02-20T04:01:06;5.10;;;2.50;;
55190;SDS011;41070;50.360;18.742;2023-02-20T04:03:37;5.70;;;2.80;;
55190;SDS011;41070;50.360;18.742;2023-02-20T04:06:08;7.40;;;2.50;;
55190;SDS011;41070;50.360;18.742;2023-02-20T04:08:44;4.60;;;2.40;;
55190;SDS011;41070;50.360;18.742;2023-02-20T04:11:25;6.20;;;2.60;;
55190;SDS011;41070;50.360;18.742;2023-02-20T04:14:04;4.80;;;2.60;;
55190;SDS011;41070;50.360;18.742;2023-02-20T04:16:46;6.10;;;2.80;;
55190;SDS011;41070;50.360;18.742;2023-02-20T04:19:21;5.60;;;2.50;;
55190;SDS011;41070;50.360;18.742;2023-02-20T04:21:53;4.70;;;2.20;;
55190;SDS011;41070;50.360;18.742;2023-02-20T04:27:24;5.60;;;3.70;;
55190;SDS011;41070;50.360;18.742;2023-02-20T04:29:51;7.60;;;3.70;;
55190;SDS011;41070;50.360;18.742;2023-02-20T04:32:20;7.00;;;3.20;;
55190;SDS011;41070;50.360;18.742;2023-02-20T04:34:49;8.40;;;3.40;;
55190;SDS011;41070;50.360;18.742;2023-02-20T04:37:18;8.20;;;3.10;;
55190;SDS011;41070;50.360;18.742;2023-02-20T04:39:46;6.30;;;2.80;;
55190;SDS011;41070;50.360;18.742;2023-02-20T04:42:17;6.80;;;3.50;;
55190;SDS011;41070;50.360;18.742;2023-02-20T04:44:44;5.10;;;2.60;;
55190;SDS011;41070;50.360;18.742;2023-02-20T04:47:13;5.70;;;2.80;;
55190;SDS011;41070;50.360;18.742;2023-02-20T04:49:43;9.20;;;3.70;;
55190;SDS011;41070;50.360;18.742;2023-02-20T04:52:11;11.70;;;5.80;;
55190;SDS011;41070;50.360;18.742;2023-02-20T04:54:40;25.00;;;10.00;;
55190;SDS011;41070;50.360;18.742;2023-02-20T04:57:08;18.40;;;7.10;;
55190;SDS011;41070;50.360;18.742;2023-02-20T04:59:35;13.90;;;5.20;;
55190;SDS011;41070;50.360;18.742;2023-02-20T05:02:03;9.40;;;3.90;;
55190;SDS011;41070;50.360;18.742;2023-02-20T05:04:31;9.50;;;4.60;;
55190;SDS011;41070;50.360;18.742;2023-02-20T05:06:58;8.70;;;4.50;;
55190;SDS011;41070;50.360;18.742;2023-02-20T05:09:26;9.80;;;4.00;;
55190;SDS011;41070;50.360;18.742;2023-02-20T05:11:54;5.10;;;3.00;;
55190;SDS011;41070;50.360;18.742;2023-02-20T05:14:22;9.10;;;3.60;;
55190;SDS011;41070;50.360;18.742;2023-02-20T05:16:55;8.60;;;4.20;;
55190;SDS011;41070;50.360;18.742;2023-02-20T05:19:25;8.20;;;4.40;;
55190;SDS011;41070;50.360;18.742;2023-02-20T05:21:53;6.90;;;3.70;;
55190;SDS011;41070;50.360;18.742;2023-02-20T05:24:38;11.70;;;5.60;;
55190;SDS011;41070;50.360;18.742;2023-02-20T05:27:08;11.00;;;4.40;;
55190;SDS011;41070;50.360;18.742;2023-02-20T05:29:37;9.80;;;3.90;;
55190;SDS011;41070;50.360;18.742;2023-02-20T05:32:05;6.40;;;3.30;;
55190;SDS011;41070;50.360;18.742;2023-02-20T05:34:32;9.20;;;2.80;;
55190;SDS011;41070;50.360;18.742;2023-02-20T05:37:00;6.40;;;3.20;;
55190;SDS011;41070;50.360;18.742;2023-02-20T05:39:37;7.30;;;3.00;;
55190;SDS011;41070;50.360;18.742;2023-02-20T05:42:11;7.60;;;3.50;;
55190;SDS011;41070;50.360;18.742;2023-02-20T05:44:39;10.60;;;4.90;;
55190;SDS011;41070;50.360;18.742;2023-02-20T05:47:07;12.30;;;4.20;;
55190;SDS011;41070;50.360;18.742;2023-02-20T05:49:37;12.50;;;5.90;;
55190;SDS011;41070;50.360;18.742;2023-02-20T05:52:05;11.00;;;4.60;;
55190;SDS011;41070;50.360;18.742;2023-02-20T05:54:37;12.70;;;5.00;;
55190;SDS011;41070;50.360;18.742;2023-02-20T05:57:07;10.40;;;4.10;;
55190;SDS011;41070;50.360;18.742;2023-02-20T05:59:37;11.20;;;4.60;;
55190;SDS011;41070;50.360;18.742;2023-02-20T06:02:19;11.00;;;3.90;;
55190;SDS011;41070;50.360;18.742;2023-02-20T06:04:46;6.20;;;3.10;;
55190;SDS011;41070;50.360;18.742;2023-02-20T06:07:14;8.90;;;3.60;;
55190;SDS011;41070;50.360;18.742;2023-02-20T06:09:53;7.30;;;3.40;;
55190;SDS011;41070;50.360;18.742;2023-02-20T06:12:20;13.30;;;4.70;;
55190;SDS011;41070;50.360;18.742;2023-02-20T06:15:02;6.20;;;3.80;;
55190;SDS011;41070;50.360;18.742;2023-02-20T06:17:32;11.20;;;4.00;;
55190;SDS011;41070;50.360;18.742;2023-02-20T06:19:59;14.60;;;5.20;;
55190;SDS011;41070;50.360;18.742;2023-02-20T06:22:29;9.70;;;4.60;;
55190;SDS011;41070;50.360;18.742;2023-02-20T06:24:57;9.30;;;5.00;;
55190;SDS011;41070;50.360;18.742;2023-02-20T06:27:24;9.70;;;4.20;;
55190;SDS011;41070;50.360;18.742;2023-02-20T06:30:11;9.60;;;4.80;;
55190;SDS011;41070;50.360;18.742;2023-02-20T06:32:48;12.40;;;5.70;;
55190;SDS011;41070;50.360;18.742;2023-02-20T06:35:16;9.10;;;5.40;;
55190;SDS011;41070;50.360;18.742;2023-02-20T06:37:44;8.60;;;5.70;;
55190;SDS011;41070;50.360;18.742;2023-02-20T06:40:12;12.00;;;5.70;;
55190;SDS011;41070;50.360;18.742;2023-02-20T06:42:40;12.70;;;6.70;;
55190;SDS011;41070;50.360;18.742;2023-02-20T06:45:07;15.50;;;7.70;;
55190;SDS011;41070;50.360;18.742;2023-02-20T06:47:36;26.00;;;10.90;;
55190;SDS011;41070;50.360;18.742;2023-02-20T06:50:04;30.50;;;11.60;;
55190;SDS011;41070;50.360;18.742;2023-02-20T06:52:31;23.30;;;9.80;;
55190;SDS011;41070;50.360;18.742;2023-02-20T06:54:59;21.00;;;8.70;;
55190;SDS011;41070;50.360;18.742;2023-02-20T06:57:27;22.70;;;8.70;;
55190;SDS011;41070;50.360;18.742;2023-02-20T06:59:55;19.30;;;7.60;;
55190;SDS011;41070;50.360;18.742;2023-02-20T07:02:22;18.40;;;8.00;;
55190;SDS011;41070;50.360;18.742;2023-02-20T07:04:50;13.30;;;5.90;;
55190;SDS011;41070;50.360;18.742;2023-02-20T07:07:18;13.40;;;5.70;;
55190;SDS011;41070;50.360;18.742;2023-02-20T07:09:45;14.70;;;7.00;;
55190;SDS011;41070;50.360;18.742;2023-02-20T07:12:16;15.20;;;6.30;;
55190;SDS011;41070;50.360;18.742;2023-02-20T07:14:47;11.50;;;6.30;;
55190;SDS011;41070;50.360;18.742;2023-02-20T07:17:17;11.30;;;5.50;;
55190;SDS011;41070;50.360;18.742;2023-02-20T07:19:45;11.10;;;6.20;;
55190;SDS011;41070;50.360;18.742;2023-02-20T07:22:13;9.70;;;5.20;;
55190;SDS011;41070;50.360;18.742;2023-02-20T07:24:41;13.60;;;6.10;;
55190;SDS011;41070;50.360;18.742;2023-02-20T07:27:09;9.10;;;5.00;;
55190;SDS011;41070;50.360;18.742;2023-02-20T07:29:36;7.80;;;4.30;;
55190;SDS011;41070;50.360;18.742;2023-02-20T07:32:06;7.80;;;3.20;;
55190;SDS011;41070;50.360;18.742;2023-02-20T07:34:34;7.10;;;4.00;;
55190;SDS011;41070;50.360;18.742;2023-02-20T07:37:02;6.50;;;4.20;;
55190;SDS011;41070;50.360;18.742;2023-02-20T07:39:29;4.80;;;2.80;;
55190;SDS011;41070;50.360;18.742;2023-02-20T07:41:59;4.70;;;2.70;;
55190;SDS011;41070;50.360;18.742;2023-02-20T07:44:27;5.70;;;2.90;;
55190;SDS011;41070;50.360;18.742;2023-02-20T07:46:55;5.70;;;3.20;;
55190;SDS011;41070;50.360;18.742;2023-02-20T07:49:24;8.50;;;4.00;;
55190;SDS011;41070;50.360;18.742;2023-02-20T07:51:52;6.40;;;2.90;;
55190;SDS011;41070;50.360;18.742;2023-02-20T07:54:19;6.00;;;3.00;;
55190;SDS011;41070;50.360;18.742;2023-02-20T07:56:47;6.60;;;2.80;;
55190;SDS011;41070;50.360;18.742;2023-02-20T07:59:15;4.50;;;2.50;;
55190;SDS011;41070;50.360;18.742;2023-02-20T08:01:43;5.90;;;2.70;;
55190;SDS011;41070;50.360;18.742;2023-02-20T08:04:10;5.50;;;3.10;;
55190;SDS011;41070;50.360;18.742;2023-02-20T08:06:40;5.70;;;2.80;;
55190;SDS011;41070;50.360;18.742;2023-02-20T08:09:08;4.00;;;2.30;;
55190;SDS011;41070;50.360;18.742;2023-02-20T08:11:38;5.70;;;3.10;;
55190;SDS011;41070;50.360;18.742;2023-02-20T08:14:06;4.70;;;3.20;;
55190;SDS011;41070;50.360;18.742;2023-02-20T08:16:34;4.60;;;3.00;;
55190;SDS011;41070;50.360;18.742;2023-02-20T08:19:02;12.50;;;4.10;;
55190;SDS011;41070;50.360;18.742;2023-02-20T08:21:31;9.20;;;4.60;;
55190;SDS011;41070;50.360;18.742;2023-02-20T08:23:59;6.00;;;3.90;;
55190;SDS011;41070;50.360;18.742;2023-02-20T08:26:27;7.00;;;4.00;;
55190;SDS011;41070;50.360;18.742;2023-02-20T08:28:55;8.50;;;4.30;;
55190;SDS011;41070;50.360;18.742;2023-02-20T08:31:22;9.30;;;4.70;;
55190;SDS011;41070;50.360;18.742;2023-02-20T08:33:50;6.00;;;4.10;;
55190;SDS011;41070;50.360;18.742;2023-02-20T08:36:17;9.40;;;4.40;;
55190;SDS011;41070;50.360;18.742;2023-02-20T08:38:45;6.90;;;4.10;;
55190;SDS011;41070;50.360;18.742;2023-02-20T08:41:13;9.00;;;4.30;;
55190;SDS011;41070;50.360;18.742;2023-02-20T08:43:41;6.80;;;4.10;;
55190;SDS011;41070;50.360;18.742;2023-02-20T08:46:10;8.80;;;4.80;;
55190;SDS011;41070;50.360;18.742;2023-02-20T08:48:38;8.20;;;4.50;;
55190;SDS011;41070;50.360;18.742;2023-02-20T08:51:05;8.80;;;4.40;;
55190;SDS011;41070;50.360;18.742;2023-02-20T08:53:34;9.30;;;4.10;;
55190;SDS011;41070;50.360;18.742;2023-02-20T08:56:04;7.60;;;4.40;;
55190;SDS011;41070;50.360;18.742;2023-02-20T08:58:33;7.90;;;4.50;;
55190;SDS011;41070;50.360;18.742;2023-02-20T09:01:00;11.50;;;5.20;;
55190;SDS011;41070;50.360;18.742;2023-02-20T09:03:28;8.80;;;5.20;;
55190;SDS011;41070;50.360;18.742;2023-02-20T09:05:56;10.40;;;5.10;;
55190;SDS011;41070;50.360;18.742;2023-02-20T09:08:26;8.60;;;5.50;;
55190;SDS011;41070;50.360;18.742;2023-02-20T09:10:53;11.40;;;5.30;;
55190;SDS011;41070;50.360;18.742;2023-02-20T09:13:21;10.80;;;5.70;;
55190;SDS011;41070;50.360;18.742;2023-02-20T09:15:49;8.80;;;5.10;;
55190;SDS011;41070;50.360;18.742;2023-02-20T09:18:17;11.00;;;4.60;;
55190;SDS011;41070;50.360;18.742;2023-02-20T09:20:44;13.10;;;5.10;;
55190;SDS011;41070;50.360;18.742;2023-02-20T09:23:17;7.40;;;4.60;;
55190;SDS011;41070;50.360;18.742;2023-02-20T09:25:46;10.90;;;4.90;;
55190;SDS011;41070;50.360;18.742;2023-02-20T09:28:14;10.20;;;5.80;;
55190;SDS011;41070;50.360;18.742;2023-02-20T09:30:42;10.60;;;6.10;;
55190;SDS011;41070;50.360;18.742;2023-02-20T09:33:09;11.10;;;5.10;;
55190;SDS011;41070;50.360;18.742;2023-02-20T09:35:37;11.20;;;5.70;;
55190;SDS011;41070;50.360;18.742;2023-02-20T09:38:05;10.60;;;5.70;;
55190;SDS011;41070;50.360;18.742;2023-02-20T09:40:33;7.50;;;5.40;;
55190;SDS011;41070;50.360;18.742;2023-02-20T09:45:50;8.70;;;5.70;;
55190;SDS011;41070;50.360;18.742;2023-02-20T09:48:50;9.90;;;5.80;;
55190;SDS011;41070;50.360;18.742;2023-02-20T09:51:26;10.00;;;5.20;;
55190;SDS011;41070;50.360;18.742;2023-02-20T09:56:40;12.80;;;6.50;;
55190;SDS011;41070;50.360;18.742;2023-02-20T09:59:18;8.30;;;5.10;;
55190;SDS011;41070;50.360;18.742;2023-02-20T10:01:51;7.70;;;5.50;;
55190;SDS011;41070;50.360;18.742;2023-02-20T10:04:44;8.50;;;5.10;;
55190;SDS011;41070;50.360;18.742;2023-02-20T10:07:15;7.40;;;4.80;;
55190;SDS011;41070;50.360;18.742;2023-02-20T10:09:49;6.50;;;4.60;;
55190;SDS011;41070;50.360;18.742;2023-02-20T10:12:31;6.30;;;3.70;;
55190;SDS011;41070;50.360;18.742;2023-02-20T10:15:10;8.80;;;4.80;;
55190;SDS011;41070;50.360;18.742;2023-02-20T10:20:19;7.40;;;4.40;;
55190;SDS011;41070;50.360;18.742;2023-02-20T10:23:02;8.20;;;4.20;;
55190;SDS011;41070;50.360;18.742;2023-02-20T10:25:52;7.70;;;3.80;;
55190;SDS011;41070;50.360;18.742;2023-02-20T10:28:23;8.20;;;4.20;;
55190;SDS011;41070;50.360;18.742;2023-02-20T10:30:55;7.40;;;4.00;;
55190;SDS011;41070;50.360;18.742;2023-02-20T10:33:25;9.50;;;4.70;;
55190;SDS011;41070;50.360;18.742;2023-02-20T10:36:01;7.30;;;4.70;;
55190;SDS011;41070;50.360;18.742;2023-02-20T10:38:33;9.20;;;4.60;;
55190;SDS011;41070;50.360;18.742;2023-02-20T10:41:06;7.80;;;4.60;;
55190;SDS011;41070;50.360;18.742;2023-02-20T10:43:45;7.30;;;4.30;;
55190;SDS011;41070;50.360;18.742;2023-02-20T10:46:19;7.10;;;4.00;;
55190;SDS011;41070;50.360;18.742;2023-02-20T10:48:53;7.40;;;4.40;;
55190;SDS011;41070;50.360;18.742;2023-02-20T10:51:29;8.20;;;4.00;;
55190;SDS011;41070;50.360;18.742;2023-02-20T10:54:06;5.50;;;3.80;;
55190;SDS011;41070;50.360;18.742;2023-02-20T10:56:48;7.60;;;3.70;;
55190;SDS011;41070;50.360;18.742;2023-02-20T11:01:57;6.40;;;3.40;;
55190;SDS011;41070;50.360;18.742;2023-02-20T11:04:31;5.90;;;3.20;;
55190;SDS011;41070;50.360;18.742;2023-02-20T11:07:06;6.30;;;4.20;;
55190;SDS011;41070;50.360;18.742;2023-02-20T11:09:36;6.90;;;3.70;;
55190;SDS011;41070;50.360;18.742;2023-02-20T11:12:04;8.70;;;3.90;;
55190;SDS011;41070;50.360;18.742;2023-02-20T11:17:06;8.50;;;3.90;;
55190;SDS011;41070;50.360;18.742;2023-02-20T11:19:42;6.80;;;3.60;;
55190;SDS011;41070;50.360;18.742;2023-02-20T11:22:12;8.10;;;4.20;;
55190;SDS011;41070;50.360;18.742;2023-02-20T11:24:43;6.10;;;3.90;;
55190;SDS011;41070;50.360;18.742;2023-02-20T11:27:16;7.70;;;4.10;;
55190;SDS011;41070;50.360;18.742;2023-02-20T11:29:59;7.10;;;4.50;;
55190;SDS011;41070;50.360;18.742;2023-02-20T11:32:39;7.50;;;5.00;;
55190;SDS011;41070;50.360;18.742;2023-02-20T11:35:14;9.60;;;5.50;;
55190;SDS011;41070;50.360;18.742;2023-02-20T11:40:43;8.60;;;5.00;;
55190;SDS011;41070;50.360;18.742;2023-02-20T11:45:40;10.20;;;5.80;;
55190;SDS011;41070;50.360;18.742;2023-02-20T11:48:10;9.50;;;5.80;;
55190;SDS011;41070;50.360;18.742;2023-02-20T11:50:49;11.50;;;6.00;;
55190;SDS011;41070;50.360;18.742;2023-02-20T11:53:23;10.60;;;5.60;;
55190;SDS011;41070;50.360;18.742;2023-02-20T11:56:08;11.90;;;6.20;;
55190;SDS011;41070;50.360;18.742;2023-02-20T11:58:36;9.10;;;5.60;;
55190;SDS011;41070;50.360;18.742;2023-02-20T12:01:05;10.00;;;5.90;;
55190;SDS011;41070;50.360;18.742;2023-02-20T12:03:34;10.70;;;6.50;;
55190;SDS011;41070;50.360;18.742;2023-02-20T12:09:02;13.50;;;7.20;;
55190;SDS011;41070;50.360;18.742;2023-02-20T12:11:31;14.50;;;5.60;;
55190;SDS011;41070;50.360;18.742;2023-02-20T12:13:59;10.30;;;5.30;;
55190;SDS011;41070;50.360;18.742;2023-02-20T12:19:04;11.50;;;6.40;;
55190;SDS011;41070;50.360;18.742;2023-02-20T12:30:39;9.80;;;5.30;;
55190;SDS011;41070;50.360;18.742;2023-02-20T12:33:24;8.50;;;5.70;;
55190;SDS011;41070;50.360;18.742;2023-02-20T12:36:09;8.30;;;5.20;;
55190;SDS011;41070;50.360;18.742;2023-02-20T12:38:48;8.20;;;5.30;;
55190;SDS011;41070;50.360;18.742;2023-02-20T12:41:28;10.00;;;5.00;;
55190;SDS011;41070;50.360;18.742;2023-02-20T12:44:24;8.20;;;5.10;;
55190;SDS011;41070;50.360;18.742;2023-02-20T12:47:15;9.20;;;5.30;;
55190;SDS011;41070;50.360;18.742;2023-02-20T13:00:53;8.90;;;5.20;;
55190;SDS011;41070;50.360;18.742;2023-02-20T13:06:31;6.10;;;4.10;;
55190;SDS011;41070;50.360;18.742;2023-02-20T13:11:40;7.60;;;4.10;;
55190;SDS011;41070;50.360;18.742;2023-02-20T13:19:48;5.90;;;4.10;;
55190;SDS011;41070;50.360;18.742;2023-02-20T13:22:36;6.70;;;3.70;;
55190;SDS011;41070;50.360;18.742;2023-02-20T13:33:40;5.20;;;3.70;;
55190;SDS011;41070;50.360;18.742;2023-02-20T13:36:56;4.80;;;3.80;;
55190;SDS011;41070;50.360;18.742;2023-02-20T14:21:32;7.30;;;4.30;;
55190;SDS011;41070;50.360;18.742;2023-02-20T14:24:18;5.70;;;4.10;;
55190;SDS011;41070;50.360;18.742;2023-02-20T14:26:52;4.70;;;3.80;;
55190;SDS011;41070;50.360;18.742;2023-02-20T14:29:29;5.50;;;3.80;;
55190;SDS011;41070;50.360;18.742;2023-02-20T14:32:05;6.20;;;3.90;;
55190;SDS011;41070;50.360;18.742;2023-02-20T14:34:45;7.00;;;4.00;;
55190;SDS011;41070;50.360;18.742;2023-02-20T14:37:48;4.80;;;3.20;;
55190;SDS011;41070;50.360;18.742;2023-02-20T14:41:09;5.70;;;3.40;;
55190;SDS011;41070;50.360;18.742;2023-02-20T14:44:01;4.40;;;3.80;;
55190;SDS011;41070;50.360;18.742;2023-02-20T14:46:33;5.80;;;3.40;;
55190;SDS011;41070;50.360;18.742;2023-02-20T14:49:14;4.40;;;3.50;;
55190;SDS011;41070;50.360;18.742;2023-02-20T14:51:47;4.70;;;3.20;;
55190;SDS011;41070;50.360;18.742;2023-02-20T14:56:45;4.80;;;2.90;;
55190;SDS011;41070;50.360;18.742;2023-02-20T14:59:14;3.90;;;3.20;;
55190;SDS011;41070;50.360;18.742;2023-02-20T15:01:50;6.40;;;3.80;;
55190;SDS011;41070;50.360;18.742;2023-02-20T15:04:20;4.00;;;2.60;;
55190;SDS011;41070;50.360;18.742;2023-02-20T15:06:48;5.60;;;3.10;;
55190;SDS011;41070;50.360;18.742;2023-02-20T15:09:18;5.20;;;2.90;;
55190;SDS011;41070;50.360;18.742;2023-02-20T15:11:53;4.10;;;2.90;;
55190;SDS011;41070;50.360;18.742;2023-02-20T15:14:26;5.40;;;2.80;;
55190;SDS011;41070;50.360;18.742;2023-02-20T15:17:21;4.20;;;2.70;;
55190;SDS011;41070;50.360;18.742;2023-02-20T15:19:52;4.80;;;2.90;;
55190;SDS011;41070;50.360;18.742;2023-02-20T15:22:22;6.00;;;2.80;;
55190;SDS011;41070;50.360;18.742;2023-02-20T15:24:49;6.80;;;3.30;;
55190;SDS011;41070;50.360;18.742;2023-02-20T15:27:18;5.90;;;3.40;;
55190;SDS011;41070;50.360;18.742;2023-02-20T15:32:42;4.50;;;2.90;;
55190;SDS011;41070;50.360;18.742;2023-02-20T15:35:20;3.90;;;2.60;;
55190;SDS011;41070;50.360;18.742;2023-02-20T15:37:55;5.80;;;2.90;;
55190;SDS011;41070;50.360;18.742;2023-02-20T15:40:27;5.20;;;2.80;;
55190;SDS011;41070;50.360;18.742;2023-02-20T15:42:57;3.60;;;2.80;;
55190;SDS011;41070;50.360;18.742;2023-02-20T15:45:26;5.50;;;2.60;;
55190;SDS011;41070;50.360;18.742;2023-02-20T15:47:56;3.00;;;2.40;;
55190;SDS011;41070;50.360;18.742;2023-02-20T15:50:24;5.60;;;3.10;;
55190;SDS011;41070;50.360;18.742;2023-02-20T15:52:52;4.20;;;2.70;;
55190;SDS011;41070;50.360;18.742;2023-02-20T15:55:22;3.30;;;2.70;;
55190;SDS011;41070;50.360;18.742;2023-02-20T15:57:52;5.00;;;2.70;;
55190;SDS011;41070;50.360;18.742;2023-02-20T16:02:55;4.70;;;2.80;;
55190;SDS011;41070;50.360;18.742;2023-02-20T16:05:23;5.30;;;2.90;;
55190;SDS011;41070;50.360;18.742;2023-02-20T16:07:51;4.80;;;2.80;;
55190;SDS011;41070;50.360;18.742;2023-02-20T16:10:20;3.60;;;2.60;;
55190;SDS011;41070;50.360;18.742;2023-02-20T16:12:54;3.90;;;2.70;;
55190;SDS011;41070;50.360;18.742;2023-02-20T16:15:24;5.80;;;3.00;;
55190;SDS011;41070;50.360;18.742;2023-02-20T16:17:54;2.90;;;2.40;;
55190;SDS011;41070;50.360;18.742;2023-02-20T16:20:23;6.40;;;3.00;;
55190;SDS011;41070;50.360;18.742;2023-02-20T16:22:53;5.40;;;2.50;;
55190;SDS011;41070;50.360;18.742;2023-02-20T16:25:21;4.50;;;2.90;;
55190;SDS011;41070;50.360;18.742;2023-02-20T16:27:50;6.30;;;2.60;;
55190;SDS011;41070;50.360;18.742;2023-02-20T16:30:29;4.80;;;2.40;;
55190;SDS011;41070;50.360;18.742;2023-02-20T16:33:01;4.30;;;2.80;;
55190;SDS011;41070;50.360;18.742;2023-02-20T16:35:34;4.30;;;2.90;;
55190;SDS011;41070;50.360;18.742;2023-02-20T16:38:02;4.50;;;2.90;;
55190;SDS011;41070;50.360;18.742;2023-02-20T16:40:30;4.70;;;2.70;;
55190;SDS011;41070;50.360;18.742;2023-02-20T16:42:57;4.80;;;2.20;;
55190;SDS011;41070;50.360;18.742;2023-02-20T16:45:25;4.70;;;2.70;;
55190;SDS011;41070;50.360;18.742;2023-02-20T16:47:55;4.10;;;2.70;;
55190;SDS011;41070;50.360;18.742;2023-02-20T16:50:28;5.80;;;2.90;;
55190;SDS011;41070;50.360;18.742;2023-02-20T16:52:57;6.00;;;2.70;;
55190;SDS011;41070;50.360;18.742;2023-02-20T16:55:29;4.90;;;2.50;;
55190;SDS011;41070;50.360;18.742;2023-02-20T16:57:59;2.60;;;2.30;;
55190;SDS011;41070;50.360;18.742;2023-02-20T17:00:28;3.90;;;3.00;;
55190;SDS011;41070;50.360;18.742;2023-02-20T17:02:57;4.30;;;2.60;;
55190;SDS011;41070;50.360;18.742;2023-02-20T17:05:26;5.70;;;2.70;;
55190;SDS011;41070;50.360;18.742;2023-02-20T17:07:58;3.00;;;2.40;;
55190;SDS011;41070;50.360;18.742;2023-02-20T17:10:27;3.60;;;2.40;;
55190;SDS011;41070;50.360;18.742;2023-02-20T17:12:56;3.70;;;2.30;;
55190;SDS011;41070;50.360;18.742;2023-02-20T17:15:24;3.00;;;2.60;;
55190;SDS011;41070;50.360;18.742;2023-02-20T17:17:53;2.90;;;2.20;;
55190;SDS011;41070;50.360;18.742;2023-02-20T17:20:23;5.90;;;2.30;;
55190;SDS011;41070;50.360;18.742;2023-02-20T17:22:52;6.50;;;2.70;;
55190;SDS011;41070;50.360;18.742;2023-02-20T17:25:24;4.80;;;2.60;;
55190;SDS011;41070;50.360;18.742;2023-02-20T17:27:52;6.30;;;2.60;;
55190;SDS011;41070;50.360;18.742;2023-02-20T17:30:21;4.60;;;2.00;;
55190;SDS011;41070;50.360;18.742;2023-02-20T17:32:50;3.70;;;2.50;;
55190;SDS011;41070;50.360;18.742;2023-02-20T17:35:20;5.90;;;2.60;;
55190;SDS011;41070;50.360;18.742;2023-02-20T17:37:47;4.60;;;2.60;;
55190;SDS011;41070;50.360;18.742;2023-02-20T17:40:16;5.00;;;2.90;;
55190;SDS011;41070;50.360;18.742;2023-02-20T17:42:46;6.80;;;2.70;;
55190;SDS011;41070;50.360;18.742;2023-02-20T17:45:14;5.60;;;3.00;;
55190;SDS011;41070;50.360;18.742;2023-02-20T17:47:42;3.90;;;2.50;;